Time;durP1;ratioP1;P1;durP2;ratioP2;P2;SDS_P1;SDS_P2;PMS_P1;PMS_P2;Temp;Humidity;BMP_temperature;BMP_pressure;BME280_temperature;BME280_humidity;BME280_pressure;Samples;Min_cycle;Max_cycle;Signal;HPM_P1;HPM_P2
2023/10/04 00:01:15;;;;;;;11.45;2.08;;;;;;;;;;5113018;28;20049;-34
2023/10/04 00:03:41;;;;;;;9.30;2.25;;;;;;;;;;5114522;28;20024;-34
2023/10/04 00:06:06;;;;;;;7.60;1.90;;;;;;;;;;5114379;28;20518;-36
2023/10/04 00:08:31;;;;;;;14.05;2.00;;;;;;;;;;5114452;28;20090;-35
2023/10/04 00:10:56;;;;;;;13.13;2.38;;;;;;;;;;5114165;28;20402;-36
2023/10/04 00:13:21;;;;;;;14.57;2.17;;;;;;;;;;5114272;28;20019;-38
2023/10/04 00:15:47;;;;;;;12.20;2.60;;;;;;;;;;5114109;28;20604;-34
2023/10/04 00:18:12;;;;;;;11.47;1.90;;;;;;;;;;5114059;28;20450;-35
2023/10/04 00:20:38;;;;;;;11.43;2.67;;;;;;;;;;5114047;28;20299;-35
2023/10/04 00:23:04;;;;;;;7.68;2.00;;;;;;;;;;5114205;28;20306;-38
2023/10/04 00:25:30;;;;;;;8.52;1.90;;;;;;;;;;5113858;28;20064;-35
2023/10/04 00:27:58;;;;;;;12.35;2.30;;;;;;;;;;5113931;28;20024;-35
2023/10/04 00:30:26;;;;;;;7.22;1.90;;;;;;;;;;5113873;28;20072;-35
2023/10/04 00:32:52;;;;;;;10.32;2.20;;;;;;;;;;5114066;28;20028;-35
2023/10/04 00:35:19;;;;;;;9.15;1.85;;;;;;;;;;5113854;28;20065;-35
2023/10/04 00:37:44;;;;;;;6.50;1.83;;;;;;;;;;5114119;28;20093;-34
2023/10/04 00:40:18;;;;;;;14.90;2.20;;;;;;;;;;5114849;28;20102;-34
2023/10/04 00:42:43;;;;;;;10.63;2.20;;;;;;;;;;5114082;28;20031;-34
2023/10/04 00:45:13;;;;;;;8.23;2.60;;;;;;;;;;5114058;28;20478;-35
2023/10/04 00:47:41;;;;;;;9.18;2.10;;;;;;;;;;5113798;28;20254;-34
2023/10/04 00:50:14;;;;;;;12.25;2.20;;;;;;;;;;5113599;28;20123;-35
2023/10/04 00:52:41;;;;;;;10.80;2.40;;;;;;;;;;5113942;28;20076;-34
2023/10/04 00:55:07;;;;;;;10.15;1.92;;;;;;;;;;5113706;28;20043;-35
2023/10/04 00:57:32;;;;;;;7.63;1.83;;;;;;;;;;5113926;28;20092;-41
2023/10/04 00:59:57;;;;;;;10.97;2.40;;;;;;;;;;5114227;28;20429;-41
2023/10/04 01:02:22;;;;;;;9.63;2.13;;;;;;;;;;5113948;28;20284;-41
2023/10/04 01:04:47;;;;;;;10.05;2.33;;;;;;;;;;5113902;28;20043;-41
2023/10/04 01:07:13;;;;;;;10.63;2.15;;;;;;;;;;5113574;28;20055;-42
2023/10/04 01:09:38;;;;;;;10.45;2.22;;;;;;;;;;5113798;28;20051;-41
2023/10/04 01:12:04;;;;;;;9.03;2.20;;;;;;;;;;5114066;28;20077;-41
2023/10/04 01:14:37;;;;;;;14.43;2.20;;;;;;;;;;5116911;28;20260;-41
2023/10/04 01:17:02;;;;;;;;;;;;;;;;;;5118076;28;20020;-41
2023/10/04 01:19:27;;;;;;;12.25;1.90;;;;;;;;;;5118004;28;19911;-41
2023/10/04 01:21:53;;;;;;;8.00;1.80;;;;;;;;;;5117455;28;20024;-41
2023/10/04 01:24:19;;;;;;;7.00;2.42;;;;;;;;;;5099085;28;20264;-41
2023/10/04 01:26:45;;;;;;;12.57;2.05;;;;;;;;;;5117239;28;20015;-41
2023/10/04 01:29:11;;;;;;;13.30;2.53;;;;;;;;;;5117147;28;20022;-41
2023/10/04 01:31:37;;;;;;;12.50;2.50;;;;;;;;;;5117418;28;20020;-41
2023/10/04 01:34:03;;;;;;;10.13;2.03;;;;;;;;;;5117049;28;20416;-41
2023/10/04 01:36:31;;;;;;;13.52;2.38;;;;;;;;;;5117110;28;20020;-41
2023/10/04 01:38:56;;;;;;;8.50;2.20;;;;;;;;;;5117321;28;20015;-41
2023/10/04 01:41:21;;;;;;;10.38;2.05;;;;;;;;;;5117202;28;20099;-41
2023/10/04 01:43:49;;;;;;;11.13;2.10;;;;;;;;;;5117201;28;20019;-41
2023/10/04 01:46:14;;;;;;;8.52;1.90;;;;;;;;;;5116871;28;20103;-41
2023/10/04 01:48:39;;;;;;;16.97;2.30;;;;;;;;;;5116934;28;20086;-40
2023/10/04 01:51:06;;;;;;;11.35;2.40;;;;;;;;;;5117080;28;20721;-41
2023/10/04 01:53:35;;;;;;;10.18;2.25;;;;;;;;;;5116922;28;20369;-41
2023/10/04 01:56:02;;;;;;;10.05;2.05;;;;;;;;;;5116760;28;20012;-41
2023/10/04 01:58:28;;;;;;;7.55;1.73;;;;;;;;;;5116962;28;20024;-41
2023/10/04 02:00:53;;;;;;;10.07;2.08;;;;;;;;;;5116572;28;20035;-41
2023/10/04 02:03:18;;;;;;;9.23;2.00;;;;;;;;;;5116573;28;20062;-41
2023/10/04 02:05:45;;;;;;;10.38;2.22;;;;;;;;;;5116723;28;20383;-41
2023/10/04 02:08:12;;;;;;;8.65;2.28;;;;;;;;;;5116738;28;20020;-41
2023/10/04 02:10:37;;;;;;;10.18;2.05;;;;;;;;;;5116645;28;20073;-40
2023/10/04 02:13:14;;;;;;;10.40;2.13;;;;;;;;;;5116315;28;20023;-41
2023/10/04 02:15:41;;;;;;;9.48;2.25;;;;;;;;;;5116376;28;20019;-41
2023/10/04 02:18:07;;;;;;;13.88;3.05;;;;;;;;;;5116522;28;20023;-40
2023/10/04 02:20:33;;;;;;;9.93;2.20;;;;;;;;;;5116447;28;20446;-41
2023/10/04 02:22:59;;;;;;;8.35;2.10;;;;;;;;;;5116195;28;20020;-41
2023/10/04 02:25:25;;;;;;;12.00;2.35;;;;;;;;;;5115197;28;20034;-41
2023/10/04 02:27:50;;;;;;;9.93;2.28;;;;;;;;;;5116061;28;20432;-41
2023/10/04 02:30:21;;;;;;;8.75;2.33;;;;;;;;;;5116303;28;20024;-41
2023/10/04 02:32:48;;;;;;;13.50;2.40;;;;;;;;;;5116202;28;20043;-40
2023/10/04 02:35:21;;;;;;;14.20;2.30;;;;;;;;;;5115980;28;20484;-41
2023/10/04 02:37:48;;;;;;;15.00;2.67;;;;;;;;;;5116171;28;20141;-41
2023/10/04 02:40:16;;;;;;;12.48;2.75;;;;;;;;;;5115835;28;20139;-41
2023/10/04 02:42:47;;;;;;;8.90;2.30;;;;;;;;;;5115815;28;20048;-40
2023/10/04 02:45:18;;;;;;;9.15;2.17;;;;;;;;;;5115729;28;20023;-41
2023/10/04 02:47:43;;;;;;;10.57;2.15;;;;;;;;;;5115968;28;20031;-41
2023/10/04 02:50:10;;;;;;;11.05;2.75;;;;;;;;;;5116297;28;20051;-41
2023/10/04 02:52:35;;;;;;;12.43;2.53;;;;;;;;;;5115493;28;20026;-41
2023/10/04 02:55:00;;;;;;;12.40;2.50;;;;;;;;;;5115609;28;20016;-40
2023/10/04 02:57:29;;;;;;;11.93;2.25;;;;;;;;;;5115767;28;20069;-40
2023/10/04 02:59:55;;;;;;;14.70;2.50;;;;;;;;;;5115739;28;20012;-40
2023/10/04 03:02:20;;;;;;;14.15;2.60;;;;;;;;;;5115499;28;20577;-41
2023/10/04 03:04:46;;;;;;;7.78;2.20;;;;;;;;;;5115625;28;20458;-41
2023/10/04 03:07:11;;;;;;;8.50;2.10;;;;;;;;;;5115304;28;20024;-41
2023/10/04 03:09:37;;;;;;;6.27;2.03;;;;;;;;;;5115615;28;20254;-41
2023/10/04 03:12:03;;;;;;;9.63;2.33;;;;;;;;;;5115372;28;20612;-41
2023/10/04 03:14:28;;;;;;;8.20;2.30;;;;;;;;;;5115511;28;20058;-42
2023/10/04 03:16:54;;;;;;;10.20;2.00;;;;;;;;;;5115139;28;20031;-41
2023/10/04 03:19:19;;;;;;;10.38;2.38;;;;;;;;;;5115281;28;20030;-40
2023/10/04 03:21:45;;;;;;;9.13;2.23;;;;;;;;;;5115007;28;20377;-40
2023/10/04 03:24:10;;;;;;;12.65;2.63;;;;;;;;;;5115283;28;20257;-40
2023/10/04 03:26:37;;;;;;;12.65;2.20;;;;;;;;;;5114843;28;20023;-40
2023/10/04 03:29:03;;;;;;;10.60;2.42;;;;;;;;;;5115162;28;20020;-40
2023/10/04 03:31:29;;;;;;;9.95;2.47;;;;;;;;;;5114997;28;20042;-40
2023/10/04 03:33:55;;;;;;;12.82;2.40;;;;;;;;;;5115068;28;20450;-40
2023/10/04 03:36:21;;;;;;;8.57;2.25;;;;;;;;;;5114712;28;20339;-40
2023/10/04 03:38:49;;;;;;;13.30;2.78;;;;;;;;;;5115080;28;20031;-39
2023/10/04 03:41:16;;;;;;;9.10;2.30;;;;;;;;;;5114854;28;20023;-40
2023/10/04 03:43:41;;;;;;;10.93;2.42;;;;;;;;;;5114894;28;20057;-41
2023/10/04 03:46:18;;;;;;;11.40;2.50;;;;;;;;;;5114648;28;20024;-41
2023/10/04 03:48:45;;;;;;;14.57;2.58;;;;;;;;;;5114931;28;20039;-39
2023/10/04 03:51:10;;;;;;;9.75;2.10;;;;;;;;;;5114769;28;20023;-40
2023/10/04 03:53:36;;;;;;;8.43;2.17;;;;;;;;;;5114390;28;20472;-40
2023/10/04 03:56:01;;;;;;;9.07;2.53;;;;;;;;;;5114398;28;20439;-40
2023/10/04 03:58:26;;;;;;;15.60;2.28;;;;;;;;;;5114313;28;20012;-40
2023/10/04 04:00:51;;;;;;;8.60;2.05;;;;;;;;;;5114271;28;20016;-40
2023/10/04 04:03:18;;;;;;;8.97;2.47;;;;;;;;;;5114895;28;20024;-40
2023/10/04 04:05:44;;;;;;;15.18;2.55;;;;;;;;;;5114226;28;20265;-41
2023/10/04 04:08:10;;;;;;;9.38;2.38;;;;;;;;;;5114161;28;20019;-40
2023/10/04 04:10:36;;;;;;;9.57;2.33;;;;;;;;;;5114199;28;20095;-41
2023/10/04 04:13:02;;;;;;;11.80;2.30;;;;;;;;;;5113994;28;20020;-40
2023/10/04 04:15:28;;;;;;;9.50;2.20;;;;;;;;;;5114023;28;20111;-40
2023/10/04 04:17:53;;;;;;;9.15;2.15;;;;;;;;;;5113844;28;20024;-40
2023/10/04 04:20:19;;;;;;;8.07;2.43;;;;;;;;;;5113493;28;20014;-40
2023/10/04 04:22:53;;;;;;;7.95;2.25;;;;;;;;;;5113430;28;20268;-40
2023/10/04 04:25:26;;;;;;;14.65;2.60;;;;;;;;;;5113729;28;20019;-40
2023/10/04 04:27:51;;;;;;;13.75;2.38;;;;;;;;;;5113294;28;20019;-40
2023/10/04 04:30:19;;;;;;;7.10;2.20;;;;;;;;;;5113541;28;20098;-41
2023/10/04 04:32:48;;;;;;;13.40;2.20;;;;;;;;;;5113400;28;20024;-40
2023/10/04 04:35:23;;;;;;;10.23;2.53;;;;;;;;;;5114430;28;20101;-40
2023/10/04 04:37:53;;;;;;;11.00;2.33;;;;;;;;;;5114170;28;20016;-40
2023/10/04 04:40:23;;;;;;;10.63;2.30;;;;;;;;;;5095841;28;20069;-40
2023/10/04 04:42:48;;;;;;;7.72;2.17;;;;;;;;;;5114013;28;20458;-41
2023/10/04 04:45:16;;;;;;;9.70;2.30;;;;;;;;;;5113825;28;20103;-41
2023/10/04 04:47:44;;;;;;;6.85;2.20;;;;;;;;;;5096117;28;20285;-41
2023/10/04 04:50:09;;;;;;;8.40;2.15;;;;;;;;;;5117757;28;20048;-40
2023/10/04 04:52:35;;;;;;;13.20;2.73;;;;;;;;;;5117936;28;20020;-40
2023/10/04 04:55:01;;;;;;;11.88;2.53;;;;;;;;;;5117781;28;20288;-40
2023/10/04 04:57:27;;;;;;;11.15;2.53;;;;;;;;;;5118136;28;20053;-40
2023/10/04 04:59:55;;;;;;;10.30;2.42;;;;;;;;;;5117836;28;20008;-40
2023/10/04 05:02:21;;;;;;;13.65;2.50;;;;;;;;;;5118049;28;20024;-41
2023/10/04 05:04:47;;;;;;;15.67;2.60;;;;;;;;;;5117770;28;20022;-41
2023/10/04 05:07:13;;;;;;;18.02;2.53;;;;;;;;;;5117937;28;20742;-40
2023/10/04 05:09:38;;;;;;;14.38;2.85;;;;;;;;;;5117844;28;20028;-40
2023/10/04 05:12:04;;;;;;;13.93;2.70;;;;;;;;;;5117473;28;20011;-40
2023/10/04 05:14:29;;;;;;;13.70;2.65;;;;;;;;;;5117651;28;20333;-41
2023/10/04 05:16:54;;;;;;;7.68;2.78;;;;;;;;;;5117715;28;20094;-40
2023/10/04 05:19:20;;;;;;;11.27;2.58;;;;;;;;;;5099079;28;20489;-40
2023/10/04 05:21:45;;;;;;;14.30;3.07;;;;;;;;;;5117396;28;20064;-40
2023/10/04 05:24:10;;;;;;;16.70;2.93;;;;;;;;;;5117902;28;20019;-40
2023/10/04 05:26:37;;;;;;;9.73;2.83;;;;;;;;;;5099027;28;20826;-40
2023/10/04 05:29:03;;;;;;;11.00;2.50;;;;;;;;;;5117503;28;20014;-40
2023/10/04 05:31:28;;;;;;;13.75;2.50;;;;;;;;;;5117210;28;20098;-41
2023/10/04 05:33:53;;;;;;;12.80;2.50;;;;;;;;;;5117677;28;20012;-40
2023/10/04 05:36:18;;;;;;;12.17;2.77;;;;;;;;;;5117347;28;20016;-40
2023/10/04 05:38:43;;;;;;;13.18;2.65;;;;;;;;;;5117124;28;20600;-41
2023/10/04 05:41:09;;;;;;;14.13;2.58;;;;;;;;;;5116958;28;20477;-41
2023/10/04 05:43:34;;;;;;;13.45;3.05;;;;;;;;;;5117169;28;20099;-40
2023/10/04 05:46:00;;;;;;;13.03;2.57;;;;;;;;;;5116979;28;20020;-40
2023/10/04 05:48:26;;;;;;;12.05;2.83;;;;;;;;;;5116930;28;20292;-40
2023/10/04 05:50:54;;;;;;;10.85;2.97;;;;;;;;;;5116729;28;20030;-40
2023/10/04 05:53:19;;;;;;;8.27;2.90;;;;;;;;;;5116982;28;20027;-40
2023/10/04 05:55:45;;;;;;;10.85;2.55;;;;;;;;;;5116683;28;20012;-40
2023/10/04 05:58:10;;;;;;;12.88;2.85;;;;;;;;;;5117225;28;20041;-40
2023/10/04 06:00:51;;;;;;;9.77;2.80;;;;;;;;;;5117021;28;20015;-41
2023/10/04 06:03:16;;;;;;;8.55;2.55;;;;;;;;;;5116868;28;20285;-40
2023/10/04 06:05:42;;;;;;;10.47;3.10;;;;;;;;;;5116772;28;20410;-41
2023/10/04 06:08:26;;;;;;;12.10;2.75;;;;;;;;;;5116921;28;20265;-41
2023/10/04 06:10:53;;;;;;;12.55;3.00;;;;;;;;;;5116983;28;20028;-40
2023/10/04 06:13:18;;;;;;;11.63;2.90;;;;;;;;;;5116796;28;20020;-40
2023/10/04 06:15:44;;;;;;;9.27;2.60;;;;;;;;;;5116464;28;20088;-40
2023/10/04 06:18:11;;;;;;;8.80;2.40;;;;;;;;;;5116562;28;20454;-40
2023/10/04 06:20:38;;;;;;;12.93;2.65;;;;;;;;;;5116467;28;20019;-41
2023/10/04 06:23:05;;;;;;;13.88;2.92;;;;;;;;;;5116497;28;20016;-40
2023/10/04 06:25:31;;;;;;;9.48;2.80;;;;;;;;;;5116467;28;20023;-40
2023/10/04 06:27:57;;;;;;;9.85;2.78;;;;;;;;;;5116581;28;20477;-40
2023/10/04 06:30:26;;;;;;;11.35;3.00;;;;;;;;;;5115985;28;20016;-42
2023/10/04 06:32:52;;;;;;;10.98;2.85;;;;;;;;;;5097685;28;20019;-41
2023/10/04 06:35:18;;;;;;;11.75;2.88;;;;;;;;;;5116266;28;20004;-40
2023/10/04 06:37:44;;;;;;;17.27;3.40;;;;;;;;;;5115935;28;20096;-40
2023/10/04 06:40:19;;;;;;;14.10;3.25;;;;;;;;;;5116137;28;20469;-40
2023/10/04 06:42:45;;;;;;;11.90;3.10;;;;;;;;;;5116053;28;20050;-40
2023/10/04 06:45:14;;;;;;;11.15;3.05;;;;;;;;;;5116059;28;20450;-40
2023/10/04 06:47:41;;;;;;;10.88;2.75;;;;;;;;;;5116012;28;20012;-40
2023/10/04 06:50:07;;;;;;;11.68;2.90;;;;;;;;;;5115566;28;20126;-41
2023/10/04 06:52:32;;;;;;;12.60;3.00;;;;;;;;;;5115876;28;20107;-40
2023/10/04 06:54:57;;;;;;;15.63;3.17;;;;;;;;;;5115865;28;20012;-41
2023/10/04 06:57:23;;;;;;;11.73;2.85;;;;;;;;;;5115752;28;20256;-40
2023/10/04 06:59:49;;;;;;;13.43;3.00;;;;;;;;;;5116058;28;20022;-43
2023/10/04 07:02:14;;;;;;;13.10;3.38;;;;;;;;;;5116460;28;20630;-40
2023/10/04 07:04:39;;;;;;;8.97;2.90;;;;;;;;;;5115492;28;20073;-40
2023/10/04 07:07:04;;;;;;;8.97;2.97;;;;;;;;;;5115627;28;20269;-40
2023/10/04 07:09:29;;;;;;;14.73;3.43;;;;;;;;;;5115642;28;20505;-41
2023/10/04 07:11:55;;;;;;;12.55;3.00;;;;;;;;;;5114827;28;20281;-41
2023/10/04 07:14:20;;;;;;;11.83;3.00;;;;;;;;;;5115120;28;20015;-41
2023/10/04 07:16:46;;;;;;;11.18;3.30;;;;;;;;;;5115451;28;20357;-40
2023/10/04 07:19:11;;;;;;;12.03;3.00;;;;;;;;;;5115408;28;20019;-39
2023/10/04 07:21:37;;;;;;;11.15;3.17;;;;;;;;;;5115041;28;20261;-39
2023/10/04 07:24:02;;;;;;;17.60;3.20;;;;;;;;;;5115303;28;20007;-40
2023/10/04 07:26:28;;;;;;;11.95;3.40;;;;;;;;;;5115236;28;20268;-39
2023/10/04 07:28:55;;;;;;;12.30;3.03;;;;;;;;;;5115254;28;20015;-39
2023/10/04 07:31:21;;;;;;;14.05;3.58;;;;;;;;;;5115125;28;20466;-40
2023/10/04 07:33:46;;;;;;;10.82;2.80;;;;;;;;;;5115001;28;20026;-40
2023/10/04 07:36:11;;;;;;;14.15;3.33;;;;;;;;;;5115853;28;20104;-40
2023/10/04 07:38:36;;;;;;;11.87;3.40;;;;;;;;;;5114759;28;20493;-40
2023/10/04 07:41:02;;;;;;;13.10;3.03;;;;;;;;;;5114610;28;20256;-40
2023/10/04 07:43:27;;;;;;;15.52;3.90;;;;;;;;;;5114610;28;20377;-40
2023/10/04 07:45:52;;;;;;;16.60;3.60;;;;;;;;;;5115187;28;20058;-40
2023/10/04 07:48:17;;;;;;;18.33;3.50;;;;;;;;;;5114621;28;20277;-39
2023/10/04 07:50:43;;;;;;;13.35;3.22;;;;;;;;;;5114821;28;20080;-40
2023/10/04 07:53:08;;;;;;;14.38;3.70;;;;;;;;;;5114391;28;20355;-40
2023/10/04 07:55:34;;;;;;;8.45;3.20;;;;;;;;;;5114704;28;20008;-40
2023/10/04 07:58:03;;;;;;;11.88;3.50;;;;;;;;;;5114444;28;20016;-40
2023/10/04 08:00:29;;;;;;;15.82;4.05;;;;;;;;;;5114563;28;20077;-40
2023/10/04 08:02:54;;;;;;;14.45;4.00;;;;;;;;;;5114313;28;20019;-40
2023/10/04 08:05:25;;;;;;;14.45;3.83;;;;;;;;;;5114263;28;20034;-40
2023/10/04 08:07:54;;;;;;;10.43;3.45;;;;;;;;;;5114448;28;20485;-42
2023/10/04 08:10:23;;;;;;;12.90;3.42;;;;;;;;;;5096114;28;20028;-39
2023/10/04 08:12:51;;;;;;;15.32;3.83;;;;;;;;;;5114100;28;20485;-41
2023/10/04 08:15:19;;;;;;;14.55;3.92;;;;;;;;;;5114908;28;20092;-40
2023/10/04 08:17:48;;;;;;;16.60;4.30;;;;;;;;;;5114702;28;20020;-40
2023/10/04 08:20:13;;;;;;;17.10;4.00;;;;;;;;;;5114152;28;20012;-40
2023/10/04 08:22:40;;;;;;;14.17;3.80;;;;;;;;;;5113675;28;20026;-40
2023/10/04 08:25:05;;;;;;;13.20;4.05;;;;;;;;;;5114303;28;20264;-40
2023/10/04 08:27:31;;;;;;;14.00;4.03;;;;;;;;;;5114003;28;20366;-40
2023/10/04 08:29:56;;;;;;;16.98;4.13;;;;;;;;;;5113954;28;20103;-41
2023/10/04 08:32:22;;;;;;;15.43;4.20;;;;;;;;;;5113738;28;20027;-41
2023/10/04 08:34:49;;;;;;;15.25;3.92;;;;;;;;;;5114200;28;20011;-40
2023/10/04 08:37:14;;;;;;;13.80;4.10;;;;;;;;;;5114146;28;20020;-42
2023/10/04 08:39:40;;;;;;;15.27;4.00;;;;;;;;;;5113983;28;20529;-41
2023/10/04 08:42:05;;;;;;;14.18;4.07;;;;;;;;;;5114072;28;20027;-40
2023/10/04 08:44:30;;;;;;;15.20;4.07;;;;;;;;;;5114067;28;20019;-40
2023/10/04 08:46:58;;;;;;;16.00;4.30;;;;;;;;;;5113749;28;20042;-40
2023/10/04 08:49:25;;;;;;;14.93;4.05;;;;;;;;;;5114227;28;20055;-40
2023/10/04 08:51:55;;;;;;;14.43;3.88;;;;;;;;;;5113965;28;20393;-40
2023/10/04 08:54:24;;;;;;;18.77;4.35;;;;;;;;;;5113789;28;20032;-40
2023/10/04 08:56:59;;;;;;;14.05;3.90;;;;;;;;;;5113976;28;20022;-41
2023/10/04 08:59:24;;;;;;;16.95;4.05;;;;;;;;;;5113104;28;20016;-40
2023/10/04 09:01:51;;;;;;;15.02;3.85;;;;;;;;;;5113915;28;20076;-40
2023/10/04 09:04:20;;;;;;;12.73;3.85;;;;;;;;;;5113095;28;20094;-43
2023/10/04 09:06:45;;;;;;;18.65;3.97;;;;;;;;;;5113091;28;20016;-40
2023/10/04 09:09:14;;;;;;;18.83;4.00;;;;;;;;;;5111202;28;20028;-40
2023/10/04 09:11:40;;;;;;;15.32;4.10;;;;;;;;;;5110856;28;20425;-40
2023/10/04 09:14:06;;;;;;;13.55;3.90;;;;;;;;;;5110506;28;20573;-41
2023/10/04 09:16:31;;;;;;;15.38;4.28;;;;;;;;;;5110900;28;20012;-40
2023/10/04 09:19:14;;;;;;;15.23;3.78;;;;;;;;;;5111287;28;20016;-40
2023/10/04 09:21:41;;;;;;;;;;;;;;;;;;5112069;28;20023;-40
2023/10/04 09:24:10;;;;;;;15.27;3.90;;;;;;;;;;5112601;28;20002;-40
2023/10/04 09:26:36;;;;;;;15.88;4.07;;;;;;;;;;5111327;28;20031;-40
2023/10/04 09:29:02;;;;;;;12.90;3.67;;;;;;;;;;5111323;28;20034;-40
2023/10/04 09:31:27;;;;;;;16.83;4.47;;;;;;;;;;5111354;28;20098;-40
2023/10/04 09:33:54;;;;;;;17.52;4.18;;;;;;;;;;5111972;28;20040;-40
2023/10/04 09:36:33;;;;;;;17.13;3.70;;;;;;;;;;5096841;28;20007;-40
2023/10/04 09:39:08;;;;;;;14.10;3.72;;;;;;;;;;5115784;28;20016;-40
2023/10/04 09:41:41;;;;;;;15.23;4.18;;;;;;;;;;5116999;28;20020;-40
2023/10/04 09:44:25;;;;;;;13.63;3.47;;;;;;;;;;5117277;28;20043;-40
2023/10/04 09:46:54;;;;;;;16.10;3.58;;;;;;;;;;5117364;28;20483;-41
2023/10/04 09:49:23;;;;;;;16.88;3.88;;;;;;;;;;5116576;28;20047;-40
2023/10/04 09:51:49;;;;;;;14.00;3.60;;;;;;;;;;5117358;28;20023;-41
2023/10/04 09:54:17;;;;;;;14.40;3.90;;;;;;;;;;5116760;28;20022;-41
2023/10/04 09:56:43;;;;;;;15.18;3.83;;;;;;;;;;5117003;28;20023;-41
2023/10/04 09:59:10;;;;;;;12.30;3.40;;;;;;;;;;5116728;28;20008;-41
2023/10/04 10:01:37;;;;;;;15.23;3.85;;;;;;;;;;5116619;28;20016;-41
2023/10/04 10:04:07;;;;;;;17.27;4.10;;;;;;;;;;5116853;28;20047;-41
2023/10/04 10:06:33;;;;;;;18.40;3.55;;;;;;;;;;5116546;28;20045;-41
2023/10/04 10:09:00;;;;;;;14.30;4.03;;;;;;;;;;5116701;28;20016;-42
2023/10/04 10:11:26;;;;;;;17.33;3.90;;;;;;;;;;5116394;28;20023;-41
2023/10/04 10:13:53;;;;;;;16.17;3.53;;;;;;;;;;5116999;28;20068;-41
2023/10/04 10:16:19;;;;;;;13.48;3.17;;;;;;;;;;5116708;28;20066;-41
2023/10/04 10:18:44;;;;;;;15.73;3.53;;;;;;;;;;5116322;28;20472;-41
2023/10/04 10:21:09;;;;;;;21.33;3.58;;;;;;;;;;5116240;28;20068;-41
2023/10/04 10:23:53;;;;;;;15.02;3.58;;;;;;;;;;5116533;28;20111;-41
2023/10/04 10:26:19;;;;;;;19.60;4.32;;;;;;;;;;5116474;28;20028;-41
2023/10/04 10:28:47;;;;;;;16.48;3.83;;;;;;;;;;5116485;28;20477;-41
2023/10/04 10:31:19;;;;;;;17.10;3.78;;;;;;;;;;5116015;28;20020;-41
2023/10/04 10:33:44;;;;;;;16.30;4.07;;;;;;;;;;5116214;28;20023;-41
2023/10/04 10:36:18;;;;;;;12.85;3.58;;;;;;;;;;5116064;28;20015;-41
2023/10/04 10:38:44;;;;;;;16.13;3.97;;;;;;;;;;5116109;28;20047;-42
2023/10/04 10:41:28;;;;;;;17.63;4.22;;;;;;;;;;5116102;28;20016;-41
2023/10/04 10:44:11;;;;;;;13.95;4.00;;;;;;;;;;5116066;28;20027;-41
2023/10/04 10:46:51;;;;;;;13.82;3.60;;;;;;;;;;5115417;28;20370;-41
2023/10/04 10:49:35;;;;;;;14.68;3.90;;;;;;;;;;5115742;28;20493;-41
2023/10/04 10:52:01;;;;;;;14.48;3.47;;;;;;;;;;5116602;28;20023;-41
2023/10/04 10:54:26;;;;;;;17.17;4.03;;;;;;;;;;5115945;28;20516;-41
2023/10/04 10:56:51;;;;;;;17.48;4.47;;;;;;;;;;5115852;28;20242;-41
2023/10/04 10:59:16;;;;;;;13.20;3.83;;;;;;;;;;5115850;28;20475;-41
2023/10/04 11:01:42;;;;;;;14.10;4.10;;;;;;;;;;5115500;28;20011;-41
2023/10/04 11:04:07;;;;;;;13.63;3.70;;;;;;;;;;5115762;28;20031;-40
2023/10/04 11:06:32;;;;;;;17.25;3.70;;;;;;;;;;5115393;28;20043;-40
2023/10/04 11:08:57;;;;;;;13.90;3.83;;;;;;;;;;5115404;28;20115;-40
2023/10/04 11:11:23;;;;;;;14.05;4.00;;;;;;;;;;5097068;28;20340;-40
2023/10/04 11:13:48;;;;;;;15.93;3.75;;;;;;;;;;5096968;28;20018;-41
2023/10/04 11:16:13;;;;;;;19.00;4.00;;;;;;;;;;5115262;28;20023;-41
2023/10/04 11:18:39;;;;;;;13.50;3.47;;;;;;;;;;5115434;28;20327;-41
2023/10/04 11:21:04;;;;;;;13.27;4.03;;;;;;;;;;5115067;28;20347;-41
2023/10/04 11:23:30;;;;;;;14.98;3.35;;;;;;;;;;5115385;28;20039;-41
2023/10/04 11:25:58;;;;;;;20.17;4.32;;;;;;;;;;5115264;28;20012;-41
2023/10/04 11:28:23;;;;;;;16.67;4.07;;;;;;;;;;5115451;28;20027;-42
2023/10/04 11:30:49;;;;;;;18.15;3.83;;;;;;;;;;5114924;28;20068;-41
2023/10/04 11:33:14;;;;;;;17.38;3.85;;;;;;;;;;5115105;28;20481;-41
2023/10/04 11:35:43;;;;;;;12.98;3.92;;;;;;;;;;5115129;28;20008;-41
2023/10/04 11:38:15;;;;;;;12.43;3.40;;;;;;;;;;5114821;28;20049;-41
2023/10/04 11:40:44;;;;;;;11.95;3.40;;;;;;;;;;5115529;28;20027;-40
2023/10/04 11:43:09;;;;;;;13.02;3.95;;;;;;;;;;5115263;28;20448;-41
2023/10/04 11:45:34;;;;;;;15.52;3.38;;;;;;;;;;5114659;28;20051;-41
2023/10/04 11:48:01;;;;;;;19.10;3.65;;;;;;;;;;5115158;28;20450;-42
2023/10/04 11:50:46;;;;;;;9.25;3.28;;;;;;;;;;5114410;28;20047;-42
2023/10/04 11:53:12;;;;;;;13.65;3.95;;;;;;;;;;5114676;28;20168;-41
2023/10/04 11:55:38;;;;;;;17.08;3.83;;;;;;;;;;5114490;28;20094;-41
2023/10/04 11:58:04;;;;;;;16.83;3.78;;;;;;;;;;5114742;28;20024;-41
2023/10/04 12:00:29;;;;;;;13.13;4.20;;;;;;;;;;5114391;28;20015;-40
2023/10/04 12:02:55;;;;;;;17.48;3.88;;;;;;;;;;5114552;28;20069;-41
2023/10/04 12:05:20;;;;;;;15.85;4.13;;;;;;;;;;5114281;28;20425;-41
2023/10/04 12:07:45;;;;;;;9.67;3.03;;;;;;;;;;5114753;28;20097;-41
2023/10/04 12:10:13;;;;;;;10.50;3.50;;;;;;;;;;5114160;28;20562;-40
2023/10/04 12:12:38;;;;;;;12.88;3.60;;;;;;;;;;5114343;28;20462;-41
2023/10/04 12:15:07;;;;;;;13.73;3.80;;;;;;;;;;5114350;28;20051;-41
2023/10/04 12:17:34;;;;;;;12.32;3.50;;;;;;;;;;5114156;28;20012;-41
2023/10/04 12:19:59;;;;;;;12.32;3.38;;;;;;;;;;5114453;28;20412;-41
2023/10/04 12:22:24;;;;;;;12.18;3.53;;;;;;;;;;5114416;28;20020;-48
2023/10/04 12:24:50;;;;;;;14.35;3.80;;;;;;;;;;5114284;28;20020;-41
2023/10/04 12:27:21;;;;;;;11.10;3.33;;;;;;;;;;5113991;28;20027;-41
2023/10/04 12:29:47;;;;;;;12.40;3.30;;;;;;;;;;5114312;28;20035;-41
2023/10/04 12:32:14;;;;;;;12.88;3.63;;;;;;;;;;5114216;28;20373;-40
2023/10/04 12:34:40;;;;;;;12.27;3.25;;;;;;;;;;5113887;28;20026;-40
2023/10/04 12:37:05;;;;;;;9.55;2.72;;;;;;;;;;5114168;28;20041;-41
2023/10/04 12:39:31;;;;;;;13.82;3.20;;;;;;;;;;5114345;28;20456;-41
2023/10/04 12:41:59;;;;;;;10.13;2.58;;;;;;;;;;5113831;28;20369;-40
2023/10/04 12:44:24;;;;;;;6.78;2.30;;;;;;;;;;5096450;28;20044;-41
2023/10/04 12:46:49;;;;;;;8.90;2.35;;;;;;;;;;5095594;28;20039;-40
2023/10/04 12:49:15;;;;;;;15.85;3.03;;;;;;;;;;5113545;28;20050;-39
2023/10/04 12:51:40;;;;;;;11.45;2.15;;;;;;;;;;5113705;28;20016;-40
2023/10/04 12:54:08;;;;;;;10.43;2.10;;;;;;;;;;5113449;28;20096;-41
2023/10/04 12:56:33;;;;;;;8.02;2.50;;;;;;;;;;5113184;28;20072;-41
2023/10/04 12:59:03;;;;;;;8.90;2.40;;;;;;;;;;5113664;28;20110;-41
2023/10/04 13:01:28;;;;;;;12.18;2.95;;;;;;;;;;5113658;28;20019;-40
2023/10/04 13:03:54;;;;;;;9.73;2.38;;;;;;;;;;5113887;28;20023;-41
2023/10/04 13:06:19;;;;;;;6.85;2.38;;;;;;;;;;5114195;28;20112;-45
2023/10/04 13:08:44;;;;;;;9.80;2.20;;;;;;;;;;5114784;28;20023;-41
2023/10/04 13:11:14;;;;;;;8.43;2.40;;;;;;;;;;5117682;28;20019;-41
2023/10/04 13:13:39;;;;;;;9.82;2.53;;;;;;;;;;5117755;28;20102;-41
2023/10/04 13:16:05;;;;;;;13.68;2.58;;;;;;;;;;5117488;28;20095;-41
2023/10/04 13:18:31;;;;;;;10.68;2.40;;;;;;;;;;5099307;28;20462;-41
2023/10/04 13:20:56;;;;;;;8.70;2.42;;;;;;;;;;5117723;28;20018;-41
2023/10/04 13:23:21;;;;;;;14.52;2.50;;;;;;;;;;5117447;28;20049;-41
2023/10/04 13:25:48;;;;;;;12.10;2.83;;;;;;;;;;5117434;28;20026;-42
2023/10/04 13:28:17;;;;;;;12.32;2.20;;;;;;;;;;5117608;28;20758;-41
2023/10/04 13:30:43;;;;;;;7.68;2.10;;;;;;;;;;5117496;28;20027;-41
2023/10/04 13:33:09;;;;;;;8.05;2.10;;;;;;;;;;5117181;28;20099;-41
2023/10/04 13:35:34;;;;;;;8.07;1.83;;;;;;;;;;5117209;28;20019;-42
2023/10/04 13:38:00;;;;;;;12.10;2.13;;;;;;;;;;5117692;28;20011;-40
2023/10/04 13:40:25;;;;;;;8.02;1.83;;;;;;;;;;5117399;28;20032;-42
2023/10/04 13:42:51;;;;;;;7.60;1.90;;;;;;;;;;5117342;28;20019;-40
2023/10/04 13:45:16;;;;;;;9.65;1.90;;;;;;;;;;5117013;28;20026;-41
2023/10/04 13:47:42;;;;;;;10.35;2.00;;;;;;;;;;5117299;28;20023;-41
2023/10/04 13:50:07;;;;;;;7.43;1.67;;;;;;;;;;5116790;28;20079;-41
2023/10/04 13:52:33;;;;;;;9.70;1.88;;;;;;;;;;5098738;28;20373;-41
2023/10/04 13:54:58;;;;;;;12.40;1.95;;;;;;;;;;5116786;28;20016;-41
2023/10/04 13:57:24;;;;;;;5.40;1.33;;;;;;;;;;5116737;28;20012;-42
2023/10/04 13:59:49;;;;;;;8.23;1.80;;;;;;;;;;5116994;28;20257;-41
2023/10/04 14:02:18;;;;;;;7.43;1.45;;;;;;;;;;5116641;28;20019;-42
2023/10/04 14:04:43;;;;;;;7.70;1.95;;;;;;;;;;5116426;28;20061;-42
2023/10/04 14:07:08;;;;;;;6.57;1.67;;;;;;;;;;5117154;28;20020;-42
2023/10/04 14:09:33;;;;;;;9.33;1.90;;;;;;;;;;5116568;28;20015;-42
2023/10/04 14:11:58;;;;;;;6.95;1.77;;;;;;;;;;5116393;28;20035;-41
2023/10/04 14:14:27;;;;;;;6.10;1.50;;;;;;;;;;5116679;28;20063;-41
2023/10/04 14:16:52;;;;;;;7.03;1.73;;;;;;;;;;5116404;28;20015;-41
2023/10/04 14:19:19;;;;;;;7.93;2.20;;;;;;;;;;5116642;28;20064;-41
2023/10/04 14:21:44;;;;;;;7.45;2.03;;;;;;;;;;5116547;28;20024;-41
2023/10/04 14:24:10;;;;;;;7.78;2.00;;;;;;;;;;5116223;28;20091;-41
2023/10/04 14:26:38;;;;;;;5.72;1.70;;;;;;;;;;5116440;28;20454;-41
2023/10/04 14:29:04;;;;;;;8.50;1.75;;;;;;;;;;5115759;28;20086;-42
2023/10/04 14:31:29;;;;;;;11.75;2.00;;;;;;;;;;5097103;28;20081;-40